sensor_id;sensor_type;location;lat;lon;timestamp;P1;durP1;ratioP1;P2;durP2;ratioP2
7045;SDS011;3564;53.326;10.356;2023-04-01T00:00:53;6.63;;;2.63;;
7045;SDS011;3564;53.326;10.356;2023-04-01T00:03:21;5.03;;;2.70;;
7045;SDS011;3564;53.326;10.356;2023-04-01T00:05:47;4.17;;;2.33;;
7045;SDS011;3564;53.326;10.356;2023-04-01T00:08:14;4.10;;;2.30;;
7045;SDS011;3564;53.326;10.356;2023-04-01T00:10:40;5.77;;;2.63;;
7045;SDS011;3564;53.326;10.356;2023-04-01T00:13:06;3.87;;;2.20;;
7045;SDS011;3564;53.326;10.356;2023-04-01T00:15:32;6.43;;;2.70;;
7045;SDS011;3564;53.326;10.356;2023-04-01T00:17:57;4.63;;;2.70;;
7045;SDS011;3564;53.326;10.356;2023-04-01T00:20:23;3.63;;;2.43;;
7045;SDS011;3564;53.326;10.356;2023-04-01T00:22:49;3.67;;;2.50;;
7045;SDS011;3564;53.326;10.356;2023-04-01T00:25:15;5.07;;;2.77;;
7045;SDS011;3564;53.326;10.356;2023-04-01T00:27:41;6.23;;;2.63;;
7045;SDS011;3564;53.326;10.356;2023-04-01T00:30:07;6.13;;;3.00;;
7045;SDS011;3564;53.326;10.356;2023-04-01T00:32:34;5.43;;;3.03;;
7045;SDS011;3564;53.326;10.356;2023-04-01T00:35:00;3.77;;;2.60;;
7045;SDS011;3564;53.326;10.356;2023-04-01T00:37:26;3.57;;;2.87;;
7045;SDS011;3564;53.326;10.356;2023-04-01T00:39:53;5.40;;;2.90;;
7045;SDS011;3564;53.326;10.356;2023-04-01T00:42:19;5.10;;;3.20;;
7045;SDS011;3564;53.326;10.356;2023-04-01T00:44:45;4.83;;;2.70;;
7045;SDS011;3564;53.326;10.356;2023-04-01T00:47:15;5.17;;;2.67;;
7045;SDS011;3564;53.326;10.356;2023-04-01T00:49:42;5.20;;;2.80;;
7045;SDS011;3564;53.326;10.356;2023-04-01T00:52:13;6.60;;;3.00;;
7045;SDS011;3564;53.326;10.356;2023-04-01T00:54:43;5.70;;;2.67;;
7045;SDS011;3564;53.326;10.356;2023-04-01T00:57:26;4.40;;;2.50;;
7045;SDS011;3564;53.326;10.356;2023-04-01T00:59:56;5.73;;;2.63;;
7045;SDS011;3564;53.326;10.356;2023-04-01T01:02:24;4.23;;;2.73;;
7045;SDS011;3564;53.326;10.356;2023-04-01T01:04:50;3.63;;;2.73;;
7045;SDS011;3564;53.326;10.356;2023-04-01T01:07:22;5.43;;;2.47;;
7045;SDS011;3564;53.326;10.356;2023-04-01T01:12:45;3.77;;;2.27;;
7045;SDS011;3564;53.326;10.356;2023-04-01T01:29:31;3.57;;;2.40;;
7045;SDS011;3564;53.326;10.356;2023-04-01T01:37:41;3.47;;;2.50;;
7045;SDS011;3564;53.326;10.356;2023-04-01T01:40:10;3.10;;;2.80;;
7045;SDS011;3564;53.326;10.356;2023-04-01T01:42:42;4.90;;;2.57;;
7045;SDS011;3564;53.326;10.356;2023-04-01T01:45:11;5.30;;;3.20;;
7045;SDS011;3564;53.326;10.356;2023-04-01T01:47:39;4.73;;;2.73;;
7045;SDS011;3564;53.326;10.356;2023-04-01T01:50:06;3.93;;;2.77;;
7045;SDS011;3564;53.326;10.356;2023-04-01T01:52:34;3.57;;;2.27;;
7045;SDS011;3564;53.326;10.356;2023-04-01T01:54:59;6.90;;;3.30;;
7045;SDS011;3564;53.326;10.356;2023-04-01T01:57:26;5.73;;;2.73;;
7045;SDS011;3564;53.326;10.356;2023-04-01T01:59:56;3.80;;;2.60;;
7045;SDS011;3564;53.326;10.356;2023-04-01T02:02:30;6.17;;;2.70;;
7045;SDS011;3564;53.326;10.356;2023-04-01T02:04:57;3.40;;;2.47;;
7045;SDS011;3564;53.326;10.356;2023-04-01T02:07:24;4.30;;;2.20;;
7045;SDS011;3564;53.326;10.356;2023-04-01T02:09:52;3.97;;;2.50;;
7045;SDS011;3564;53.326;10.356;2023-04-01T02:12:18;7.10;;;2.70;;
7045;SDS011;3564;53.326;10.356;2023-04-01T02:14:57;4.27;;;2.30;;
7045;SDS011;3564;53.326;10.356;2023-04-01T02:17:33;3.97;;;2.40;;
7045;SDS011;3564;53.326;10.356;2023-04-01T02:20:05;4.70;;;2.47;;
7045;SDS011;3564;53.326;10.356;2023-04-01T02:22:45;3.70;;;2.40;;
7045;SDS011;3564;53.326;10.356;2023-04-01T02:25:18;4.10;;;2.27;;
7045;SDS011;3564;53.326;10.356;2023-04-01T02:27:58;3.83;;;2.30;;
7045;SDS011;3564;53.326;10.356;2023-04-01T02:30:25;5.67;;;2.57;;
7045;SDS011;3564;53.326;10.356;2023-04-01T02:32:55;4.37;;;2.20;;
7045;SDS011;3564;53.326;10.356;2023-04-01T02:35:23;4.17;;;2.20;;
7045;SDS011;3564;53.326;10.356;2023-04-01T02:37:50;5.87;;;2.47;;
7045;SDS011;3564;53.326;10.356;2023-04-01T02:40:17;3.47;;;2.40;;
7045;SDS011;3564;53.326;10.356;2023-04-01T02:42:43;5.23;;;2.30;;
7045;SDS011;3564;53.326;10.356;2023-04-01T02:45:10;4.17;;;2.10;;
7045;SDS011;3564;53.326;10.356;2023-04-01T02:47:36;5.10;;;2.30;;
7045;SDS011;3564;53.326;10.356;2023-04-01T02:50:01;4.20;;;2.60;;
7045;SDS011;3564;53.326;10.356;2023-04-01T02:52:28;3.73;;;2.20;;
7045;SDS011;3564;53.326;10.356;2023-04-01T02:54:54;4.47;;;2.10;;
7045;SDS011;3564;53.326;10.356;2023-04-01T02:57:21;4.77;;;2.47;;
7045;SDS011;3564;53.326;10.356;2023-04-01T02:59:47;3.83;;;2.17;;
7045;SDS011;3564;53.326;10.356;2023-04-01T03:02:13;2.80;;;2.37;;
7045;SDS011;3564;53.326;10.356;2023-04-01T03:04:39;4.17;;;2.70;;
7045;SDS011;3564;53.326;10.356;2023-04-01T03:07:05;4.50;;;2.40;;
7045;SDS011;3564;53.326;10.356;2023-04-01T03:09:30;5.83;;;3.10;;
7045;SDS011;3564;53.326;10.356;2023-04-01T03:11:56;4.07;;;2.40;;
7045;SDS011;3564;53.326;10.356;2023-04-01T03:14:21;4.40;;;2.67;;
7045;SDS011;3564;53.326;10.356;2023-04-01T03:16:47;4.30;;;2.53;;
7045;SDS011;3564;53.326;10.356;2023-04-01T03:19:13;7.07;;;2.60;;
7045;SDS011;3564;53.326;10.356;2023-04-01T03:21:38;4.27;;;2.40;;
7045;SDS011;3564;53.326;10.356;2023-04-01T03:24:04;3.37;;;2.67;;
7045;SDS011;3564;53.326;10.356;2023-04-01T03:26:31;4.67;;;2.93;;
7045;SDS011;3564;53.326;10.356;2023-04-01T03:28:56;4.23;;;2.90;;
7045;SDS011;3564;53.326;10.356;2023-04-01T03:31:22;4.43;;;2.30;;
7045;SDS011;3564;53.326;10.356;2023-04-01T03:33:48;2.40;;;2.20;;
7045;SDS011;3564;53.326;10.356;2023-04-01T03:36:14;4.87;;;3.00;;
7045;SDS011;3564;53.326;10.356;2023-04-01T03:38:40;4.90;;;2.77;;
7045;SDS011;3564;53.326;10.356;2023-04-01T03:41:06;3.10;;;2.67;;
7045;SDS011;3564;53.326;10.356;2023-04-01T03:43:32;3.50;;;2.70;;
7045;SDS011;3564;53.326;10.356;2023-04-01T03:45:59;4.20;;;2.73;;
7045;SDS011;3564;53.326;10.356;2023-04-01T03:48:25;5.70;;;2.40;;
7045;SDS011;3564;53.326;10.356;2023-04-01T03:50:50;4.17;;;2.50;;
7045;SDS011;3564;53.326;10.356;2023-04-01T03:53:16;4.93;;;2.63;;
7045;SDS011;3564;53.326;10.356;2023-04-01T03:55:42;3.97;;;2.47;;
7045;SDS011;3564;53.326;10.356;2023-04-01T03:58:08;5.33;;;2.83;;
7045;SDS011;3564;53.326;10.356;2023-04-01T04:00:34;3.63;;;2.60;;
7045;SDS011;3564;53.326;10.356;2023-04-01T04:03:00;6.30;;;2.70;;
7045;SDS011;3564;53.326;10.356;2023-04-01T04:05:26;5.33;;;2.53;;
7045;SDS011;3564;53.326;10.356;2023-04-01T04:07:52;4.13;;;2.90;;
7045;SDS011;3564;53.326;10.356;2023-04-01T04:10:18;4.90;;;2.90;;
7045;SDS011;3564;53.326;10.356;2023-04-01T04:12:44;3.90;;;2.50;;
7045;SDS011;3564;53.326;10.356;2023-04-01T04:15:09;4.53;;;3.00;;
7045;SDS011;3564;53.326;10.356;2023-04-01T04:17:35;4.03;;;3.07;;
7045;SDS011;3564;53.326;10.356;2023-04-01T04:20:01;5.27;;;2.83;;
7045;SDS011;3564;53.326;10.356;2023-04-01T04:22:26;3.27;;;2.97;;
7045;SDS011;3564;53.326;10.356;2023-04-01T04:24:52;5.07;;;3.10;;
7045;SDS011;3564;53.326;10.356;2023-04-01T04:27:18;4.37;;;3.33;;
7045;SDS011;3564;53.326;10.356;2023-04-01T04:29:43;5.30;;;3.33;;
7045;SDS011;3564;53.326;10.356;2023-04-01T04:32:09;5.97;;;3.40;;
7045;SDS011;3564;53.326;10.356;2023-04-01T04:34:35;4.47;;;3.10;;
7045;SDS011;3564;53.326;10.356;2023-04-01T04:37:00;4.73;;;3.13;;
7045;SDS011;3564;53.326;10.356;2023-04-01T04:39:26;6.03;;;3.07;;
7045;SDS011;3564;53.326;10.356;2023-04-01T04:41:51;3.17;;;2.67;;
7045;SDS011;3564;53.326;10.356;2023-04-01T04:44:17;5.63;;;2.97;;
7045;SDS011;3564;53.326;10.356;2023-04-01T04:46:43;4.60;;;2.73;;
7045;SDS011;3564;53.326;10.356;2023-04-01T04:49:08;4.23;;;2.83;;
7045;SDS011;3564;53.326;10.356;2023-04-01T04:51:34;3.63;;;2.50;;
7045;SDS011;3564;53.326;10.356;2023-04-01T04:54:03;3.77;;;2.60;;
7045;SDS011;3564;53.326;10.356;2023-04-01T04:56:30;4.70;;;2.27;;
7045;SDS011;3564;53.326;10.356;2023-04-01T04:58:56;4.67;;;3.17;;
7045;SDS011;3564;53.326;10.356;2023-04-01T05:01:22;5.10;;;2.90;;
7045;SDS011;3564;53.326;10.356;2023-04-01T05:03:48;4.60;;;3.00;;
7045;SDS011;3564;53.326;10.356;2023-04-01T05:06:14;5.00;;;2.97;;
7045;SDS011;3564;53.326;10.356;2023-04-01T05:08:41;3.97;;;2.97;;
7045;SDS011;3564;53.326;10.356;2023-04-01T05:11:12;4.23;;;3.00;;
7045;SDS011;3564;53.326;10.356;2023-04-01T05:13:39;4.40;;;3.00;;
7045;SDS011;3564;53.326;10.356;2023-04-01T05:16:13;5.07;;;2.83;;
7045;SDS011;3564;53.326;10.356;2023-04-01T05:18:41;4.30;;;3.40;;
7045;SDS011;3564;53.326;10.356;2023-04-01T05:21:07;4.60;;;3.30;;
7045;SDS011;3564;53.326;10.356;2023-04-01T05:23:34;3.80;;;2.90;;
7045;SDS011;3564;53.326;10.356;2023-04-01T05:26:18;5.70;;;3.00;;
7045;SDS011;3564;53.326;10.356;2023-04-01T05:28:45;6.00;;;3.63;;
7045;SDS011;3564;53.326;10.356;2023-04-01T05:31:11;4.73;;;3.37;;
7045;SDS011;3564;53.326;10.356;2023-04-01T05:33:37;4.90;;;3.23;;
7045;SDS011;3564;53.326;10.356;2023-04-01T05:36:06;4.37;;;3.30;;
7045;SDS011;3564;53.326;10.356;2023-04-01T05:38:36;5.07;;;3.33;;
7045;SDS011;3564;53.326;10.356;2023-04-01T05:41:02;4.37;;;2.90;;
7045;SDS011;3564;53.326;10.356;2023-04-01T05:43:28;3.93;;;3.00;;
7045;SDS011;3564;53.326;10.356;2023-04-01T05:45:55;4.60;;;3.23;;
7045;SDS011;3564;53.326;10.356;2023-04-01T05:48:20;3.77;;;3.00;;
7045;SDS011;3564;53.326;10.356;2023-04-01T05:50:46;5.67;;;3.50;;
7045;SDS011;3564;53.326;10.356;2023-04-01T05:53:12;6.13;;;3.13;;
7045;SDS011;3564;53.326;10.356;2023-04-01T05:55:37;5.37;;;3.20;;
7045;SDS011;3564;53.326;10.356;2023-04-01T05:58:03;5.10;;;3.50;;
7045;SDS011;3564;53.326;10.356;2023-04-01T06:00:28;6.10;;;3.37;;
7045;SDS011;3564;53.326;10.356;2023-04-01T06:02:54;5.93;;;3.20;;
7045;SDS011;3564;53.326;10.356;2023-04-01T06:05:24;5.63;;;3.30;;
7045;SDS011;3564;53.326;10.356;2023-04-01T06:07:54;5.13;;;3.30;;
7045;SDS011;3564;53.326;10.356;2023-04-01T06:10:26;6.03;;;3.03;;
7045;SDS011;3564;53.326;10.356;2023-04-01T06:13:26;4.57;;;3.70;;
7045;SDS011;3564;53.326;10.356;2023-04-01T06:16:03;4.27;;;3.10;;
7045;SDS011;3564;53.326;10.356;2023-04-01T06:18:41;4.73;;;3.13;;
7045;SDS011;3564;53.326;10.356;2023-04-01T06:24:13;5.20;;;3.63;;
7045;SDS011;3564;53.326;10.356;2023-04-01T06:27:10;4.40;;;2.90;;
7045;SDS011;3564;53.326;10.356;2023-04-01T06:44:31;2.53;;;2.33;;
7045;SDS011;3564;53.326;10.356;2023-04-01T06:50:05;2.43;;;2.23;;
7045;SDS011;3564;53.326;10.356;2023-04-01T06:53:03;2.17;;;2.00;;
7045;SDS011;3564;53.326;10.356;2023-04-01T06:58:13;3.87;;;2.10;;
7045;SDS011;3564;53.326;10.356;2023-04-01T07:00:46;2.00;;;1.90;;
7045;SDS011;3564;53.326;10.356;2023-04-01T07:05:46;2.40;;;1.97;;
7045;SDS011;3564;53.326;10.356;2023-04-01T07:08:23;2.50;;;2.30;;
7045;SDS011;3564;53.326;10.356;2023-04-01T07:11:04;2.30;;;2.10;;
7045;SDS011;3564;53.326;10.356;2023-04-01T07:13:39;2.07;;;1.97;;
7045;SDS011;3564;53.326;10.356;2023-04-01T07:16:37;1.73;;;1.63;;
7045;SDS011;3564;53.326;10.356;2023-04-01T07:19:09;1.30;;;1.20;;
7045;SDS011;3564;53.326;10.356;2023-04-01T07:21:51;1.10;;;1.10;;
7045;SDS011;3564;53.326;10.356;2023-04-01T07:24:25;2.00;;;1.10;;
7045;SDS011;3564;53.326;10.356;2023-04-01T07:27:04;1.40;;;1.30;;
7045;SDS011;3564;53.326;10.356;2023-04-01T07:29:33;1.40;;;1.30;;
7045;SDS011;3564;53.326;10.356;2023-04-01T07:32:06;1.17;;;1.10;;
7045;SDS011;3564;53.326;10.356;2023-04-01T07:37:40;1.00;;;1.00;;
7045;SDS011;3564;53.326;10.356;2023-04-01T07:40:46;1.40;;;1.30;;
7045;SDS011;3564;53.326;10.356;2023-04-01T07:51:21;1.00;;;1.00;;
7045;SDS011;3564;53.326;10.356;2023-04-01T07:59:40;1.00;;;1.00;;
7045;SDS011;3564;53.326;10.356;2023-04-01T08:06:22;1.30;;;1.20;;
7045;SDS011;3564;53.326;10.356;2023-04-01T08:21:51;1.90;;;1.40;;
7045;SDS011;3564;53.326;10.356;2023-04-01T08:24:20;1.10;;;1.10;;
7045;SDS011;3564;53.326;10.356;2023-04-01T08:27:01;1.40;;;1.30;;
7045;SDS011;3564;53.326;10.356;2023-04-01T08:29:37;1.60;;;1.50;;
7045;SDS011;3564;53.326;10.356;2023-04-01T08:32:12;1.60;;;1.33;;
7045;SDS011;3564;53.326;10.356;2023-04-01T08:34:47;1.67;;;1.57;;
7045;SDS011;3564;53.326;10.356;2023-04-01T08:37:23;1.53;;;1.43;;
7045;SDS011;3564;53.326;10.356;2023-04-01T08:39:58;1.73;;;1.20;;
7045;SDS011;3564;53.326;10.356;2023-04-01T08:55:38;2.10;;;1.20;;
7045;SDS011;3564;53.326;10.356;2023-04-01T09:06:49;1.30;;;1.20;;
7045;SDS011;3564;53.326;10.356;2023-04-01T09:09:46;1.30;;;1.20;;
7045;SDS011;3564;53.326;10.356;2023-04-01T09:29:02;2.70;;;1.20;;
7045;SDS011;3564;53.326;10.356;2023-04-01T09:37:20;1.30;;;1.20;;
7045;SDS011;3564;53.326;10.356;2023-04-01T09:40:16;1.70;;;1.40;;
7045;SDS011;3564;53.326;10.356;2023-04-01T09:42:44;1.30;;;1.20;;
7045;SDS011;3564;53.326;10.356;2023-04-01T09:45:17;1.40;;;1.30;;
7045;SDS011;3564;53.326;10.356;2023-04-01T09:51:39;1.00;;;1.00;;
7045;SDS011;3564;53.326;10.356;2023-04-01T09:54:38;1.40;;;1.30;;
7045;SDS011;3564;53.326;10.356;2023-04-01T10:14:29;1.43;;;1.30;;
7045;SDS011;3564;53.326;10.356;2023-04-01T10:20:12;1.30;;;1.20;;
7045;SDS011;3564;53.326;10.356;2023-04-01T10:25:55;1.27;;;1.10;;
7045;SDS011;3564;53.326;10.356;2023-04-01T10:37:50;1.00;;;1.00;;
7045;SDS011;3564;53.326;10.356;2023-04-01T10:41:08;1.30;;;1.20;;
7045;SDS011;3564;53.326;10.356;2023-04-01T10:55:48;2.13;;;1.13;;
7045;SDS011;3564;53.326;10.356;2023-04-01T11:24:00;1.23;;;1.13;;
7045;SDS011;3564;53.326;10.356;2023-04-01T11:32:27;0.80;;;0.80;;
7045;SDS011;3564;53.326;10.356;2023-04-01T11:41:02;1.40;;;1.20;;
7045;SDS011;3564;53.326;10.356;2023-04-01T11:49:59;0.90;;;0.90;;
7045;SDS011;3564;53.326;10.356;2023-04-01T11:52:26;0.90;;;0.90;;
7045;SDS011;3564;53.326;10.356;2023-04-01T11:57:41;0.90;;;0.90;;
7045;SDS011;3564;53.326;10.356;2023-04-01T12:06:12;1.70;;;1.60;;
7045;SDS011;3564;53.326;10.356;2023-04-01T12:08:44;1.60;;;1.47;;
7045;SDS011;3564;53.326;10.356;2023-04-01T12:14:11;1.53;;;1.43;;
7045;SDS011;3564;53.326;10.356;2023-04-01T12:17:02;1.63;;;1.47;;
7045;SDS011;3564;53.326;10.356;2023-04-01T12:39:56;3.30;;;1.90;;
7045;SDS011;3564;53.326;10.356;2023-04-01T12:53:22;2.40;;;1.93;;
7045;SDS011;3564;53.326;10.356;2023-04-01T12:56:06;4.03;;;2.00;;
7045;SDS011;3564;53.326;10.356;2023-04-01T12:58:46;2.37;;;2.00;;
7045;SDS011;3564;53.326;10.356;2023-04-01T13:01:41;3.57;;;1.80;;
7045;SDS011;3564;53.326;10.356;2023-04-01T13:07:27;2.33;;;1.90;;
7045;SDS011;3564;53.326;10.356;2023-04-01T13:12:58;2.47;;;2.20;;
7045;SDS011;3564;53.326;10.356;2023-04-01T13:15:28;3.03;;;2.20;;
7045;SDS011;3564;53.326;10.356;2023-04-01T13:21:14;2.70;;;2.13;;
7045;SDS011;3564;53.326;10.356;2023-04-01T13:26:32;3.00;;;2.40;;
7045;SDS011;3564;53.326;10.356;2023-04-01T13:29:18;3.40;;;2.17;;
7045;SDS011;3564;53.326;10.356;2023-04-01T13:40:25;2.23;;;2.03;;
7045;SDS011;3564;53.326;10.356;2023-04-01T13:54:08;3.27;;;2.23;;
7045;SDS011;3564;53.326;10.356;2023-04-01T13:56:57;4.10;;;2.23;;
7045;SDS011;3564;53.326;10.356;2023-04-01T14:10:42;3.03;;;2.20;;
7045;SDS011;3564;53.326;10.356;2023-04-01T14:15:41;2.83;;;1.83;;
7045;SDS011;3564;53.326;10.356;2023-04-01T14:18:22;1.93;;;1.83;;
7045;SDS011;3564;53.326;10.356;2023-04-01T14:21:23;2.70;;;1.97;;
7045;SDS011;3564;53.326;10.356;2023-04-01T14:24:06;2.07;;;1.83;;
7045;SDS011;3564;53.326;10.356;2023-04-01T14:32:48;2.87;;;1.90;;
7045;SDS011;3564;53.326;10.356;2023-04-01T14:38:27;2.20;;;2.00;;
7045;SDS011;3564;53.326;10.356;2023-04-01T14:41:02;3.30;;;1.90;;
7045;SDS011;3564;53.326;10.356;2023-04-01T14:49:04;3.77;;;2.37;;
7045;SDS011;3564;53.326;10.356;2023-04-01T14:51:48;3.47;;;2.00;;
7045;SDS011;3564;53.326;10.356;2023-04-01T14:54:15;2.87;;;2.23;;
7045;SDS011;3564;53.326;10.356;2023-04-01T14:59:41;4.33;;;3.17;;
7045;SDS011;3564;53.326;10.356;2023-04-01T15:05:07;2.17;;;2.00;;
7045;SDS011;3564;53.326;10.356;2023-04-01T15:10:42;3.17;;;2.33;;
7045;SDS011;3564;53.326;10.356;2023-04-01T15:13:18;4.57;;;2.73;;
7045;SDS011;3564;53.326;10.356;2023-04-01T15:24:11;2.60;;;2.40;;
7045;SDS011;3564;53.326;10.356;2023-04-01T15:26:56;5.90;;;2.90;;
7045;SDS011;3564;53.326;10.356;2023-04-01T15:29:40;4.87;;;2.80;;
7045;SDS011;3564;53.326;10.356;2023-04-01T15:32:55;3.27;;;2.80;;
7045;SDS011;3564;53.326;10.356;2023-04-01T15:38:48;4.70;;;2.90;;
7045;SDS011;3564;53.326;10.356;2023-04-01T15:41:28;4.13;;;2.60;;
7045;SDS011;3564;53.326;10.356;2023-04-01T15:47:37;5.37;;;2.70;;
7045;SDS011;3564;53.326;10.356;2023-04-01T16:06:56;5.23;;;3.10;;
7045;SDS011;3564;53.326;10.356;2023-04-01T16:12:49;7.40;;;3.23;;
7045;SDS011;3564;53.326;10.356;2023-04-01T16:15:26;6.40;;;3.03;;
7045;SDS011;3564;53.326;10.356;2023-04-01T16:18:13;6.47;;;3.23;;
7045;SDS011;3564;53.326;10.356;2023-04-01T16:20:46;5.30;;;4.17;;
7045;SDS011;3564;53.326;10.356;2023-04-01T16:23:40;9.50;;;8.47;;
7045;SDS011;3564;53.326;10.356;2023-04-01T16:32:21;4.20;;;3.17;;
7045;SDS011;3564;53.326;10.356;2023-04-01T16:35:10;5.73;;;4.00;;
7045;SDS011;3564;53.326;10.356;2023-04-01T16:37:49;5.80;;;4.23;;
7045;SDS011;3564;53.326;10.356;2023-04-01T16:43:25;9.37;;;6.87;;
7045;SDS011;3564;53.326;10.356;2023-04-01T16:54:30;9.60;;;6.20;;
7045;SDS011;3564;53.326;10.356;2023-04-01T17:00:14;15.33;;;10.50;;
7045;SDS011;3564;53.326;10.356;2023-04-01T17:10:59;10.23;;;5.97;;
7045;SDS011;3564;53.326;10.356;2023-04-01T17:25:14;7.80;;;4.30;;
7045;SDS011;3564;53.326;10.356;2023-04-01T17:28:04;4.17;;;3.40;;
7045;SDS011;3564;53.326;10.356;2023-04-01T17:48:08;6.57;;;3.60;;
7045;SDS011;3564;53.326;10.356;2023-04-01T17:53:43;6.77;;;3.60;;
7045;SDS011;3564;53.326;10.356;2023-04-01T17:59:54;6.10;;;3.53;;
7045;SDS011;3564;53.326;10.356;2023-04-01T18:08:11;17.67;;;9.70;;
7045;SDS011;3564;53.326;10.356;2023-04-01T18:16:02;9.23;;;5.90;;
7045;SDS011;3564;53.326;10.356;2023-04-01T18:19:07;20.13;;;11.50;;
7045;SDS011;3564;53.326;10.356;2023-04-01T18:21:47;12.40;;;6.43;;
7045;SDS011;3564;53.326;10.356;2023-04-01T18:24:33;20.20;;;9.53;;
7045;SDS011;3564;53.326;10.356;2023-04-01T18:27:15;14.87;;;8.00;;
7045;SDS011;3564;53.326;10.356;2023-04-01T18:29:52;16.30;;;8.37;;
7045;SDS011;3564;53.326;10.356;2023-04-01T18:32:44;22.27;;;10.00;;
7045;SDS011;3564;53.326;10.356;2023-04-01T18:35:27;16.97;;;7.80;;
7045;SDS011;3564;53.326;10.356;2023-04-01T18:38:10;10.57;;;6.40;;
7045;SDS011;3564;53.326;10.356;2023-04-01T18:40:51;7.47;;;4.70;;
7045;SDS011;3564;53.326;10.356;2023-04-01T18:43:43;4.60;;;3.90;;
7045;SDS011;3564;53.326;10.356;2023-04-01T18:49:21;7.03;;;4.13;;
7045;SDS011;3564;53.326;10.356;2023-04-01T18:51:58;5.60;;;4.30;;
7045;SDS011;3564;53.326;10.356;2023-04-01T18:55:14;5.90;;;4.50;;
7045;SDS011;3564;53.326;10.356;2023-04-01T18:57:54;6.00;;;3.63;;
7045;SDS011;3564;53.326;10.356;2023-04-01T19:00:39;6.13;;;4.63;;
7045;SDS011;3564;53.326;10.356;2023-04-01T19:03:28;6.57;;;4.43;;
7045;SDS011;3564;53.326;10.356;2023-04-01T19:06:23;5.80;;;4.23;;
7045;SDS011;3564;53.326;10.356;2023-04-01T19:09:16;6.27;;;4.80;;
7045;SDS011;3564;53.326;10.356;2023-04-01T19:17:14;6.67;;;4.70;;
7045;SDS011;3564;53.326;10.356;2023-04-01T19:22:38;8.13;;;5.07;;
7045;SDS011;3564;53.326;10.356;2023-04-01T19:25:23;4.83;;;3.97;;
7045;SDS011;3564;53.326;10.356;2023-04-01T19:28:39;6.37;;;3.70;;
7045;SDS011;3564;53.326;10.356;2023-04-01T19:36:29;5.17;;;4.17;;
7045;SDS011;3564;53.326;10.356;2023-04-01T19:41:49;5.97;;;2.83;;
7045;SDS011;3564;53.326;10.356;2023-04-01T19:44:39;6.27;;;3.63;;
7045;SDS011;3564;53.326;10.356;2023-04-01T19:47:21;7.07;;;3.70;;
7045;SDS011;3564;53.326;10.356;2023-04-01T19:52:48;4.17;;;3.47;;
7045;SDS011;3564;53.326;10.356;2023-04-01T19:55:33;5.43;;;3.53;;
7045;SDS011;3564;53.326;10.356;2023-04-01T20:00:36;3.90;;;2.53;;
7045;SDS011;3564;53.326;10.356;2023-04-01T20:03:05;3.07;;;2.70;;
7045;SDS011;3564;53.326;10.356;2023-04-01T20:11:41;6.30;;;3.40;;
7045;SDS011;3564;53.326;10.356;2023-04-01T20:17:24;4.67;;;2.90;;
7045;SDS011;3564;53.326;10.356;2023-04-01T20:28:05;4.97;;;3.47;;
7045;SDS011;3564;53.326;10.356;2023-04-01T20:39:33;5.87;;;3.40;;
7045;SDS011;3564;53.326;10.356;2023-04-01T20:42:16;3.90;;;2.83;;
7045;SDS011;3564;53.326;10.356;2023-04-01T20:51:28;6.03;;;2.90;;
7045;SDS011;3564;53.326;10.356;2023-04-01T20:57:04;3.50;;;2.13;;
7045;SDS011;3564;53.326;10.356;2023-04-01T21:03:00;5.13;;;2.73;;
7045;SDS011;3564;53.326;10.356;2023-04-01T21:05:26;3.23;;;2.40;;
7045;SDS011;3564;53.326;10.356;2023-04-01T21:08:02;5.60;;;2.50;;
7045;SDS011;3564;53.326;10.356;2023-04-01T21:16:39;3.80;;;1.90;;
7045;SDS011;3564;53.326;10.356;2023-04-01T21:28:02;3.90;;;2.43;;
7045;SDS011;3564;53.326;10.356;2023-04-01T21:36:10;4.00;;;2.50;;
7045;SDS011;3564;53.326;10.356;2023-04-01T21:51:04;3.57;;;2.00;;
7045;SDS011;3564;53.326;10.356;2023-04-01T22:04:42;4.30;;;1.80;;
7045;SDS011;3564;53.326;10.356;2023-04-01T22:07:46;5.77;;;1.97;;
7045;SDS011;3564;53.326;10.356;2023-04-01T22:16:13;6.37;;;1.80;;
7045;SDS011;3564;53.326;10.356;2023-04-01T22:18:21;3.87;;;1.93;;
7045;SDS011;3564;53.326;10.356;2023-04-01T22:21:02;4.40;;;2.40;;
7045;SDS011;3564;53.326;10.356;2023-04-01T22:26:16;2.63;;;1.77;;
7045;SDS011;3564;53.326;10.356;2023-04-01T22:31:28;6.70;;;1.80;;
7045;SDS011;3564;53.326;10.356;2023-04-01T22:34:20;4.70;;;1.73;;
7045;SDS011;3564;53.326;10.356;2023-04-01T22:48:05;5.53;;;1.80;;
7045;SDS011;3564;53.326;10.356;2023-04-01T22:50:54;3.43;;;1.83;;
7045;SDS011;3564;53.326;10.356;2023-04-01T22:56:21;5.77;;;1.80;;
7045;SDS011;3564;53.326;10.356;2023-04-01T22:59:16;2.73;;;1.60;;
7045;SDS011;3564;53.326;10.356;2023-04-01T23:01:44;2.30;;;1.47;;
7045;SDS011;3564;53.326;10.356;2023-04-01T23:04:21;3.93;;;1.73;;
7045;SDS011;3564;53.326;10.356;2023-04-01T23:06:59;4.53;;;2.00;;
7045;SDS011;3564;53.326;10.356;2023-04-01T23:09:33;3.00;;;1.53;;
7045;SDS011;3564;53.326;10.356;2023-04-01T23:12:04;1.77;;;1.60;;
7045;SDS011;3564;53.326;10.356;2023-04-01T23:14:37;1.97;;;1.57;;
7045;SDS011;3564;53.326;10.356;2023-04-01T23:23:01;3.47;;;1.53;;
7045;SDS011;3564;53.326;10.356;2023-04-01T23:28:23;3.07;;;1.80;;
7045;SDS011;3564;53.326;10.356;2023-04-01T23:31:02;2.77;;;1.40;;
7045;SDS011;3564;53.326;10.356;2023-04-01T23:33:28;3.40;;;1.90;;
7045;SDS011;3564;53.326;10.356;2023-04-01T23:35:57;4.07;;;1.80;;
7045;SDS011;3564;53.326;10.356;2023-04-01T23:38:31;6.03;;;2.13;;
7045;SDS011;3564;53.326;10.356;2023-04-01T23:40:59;3.40;;;1.53;;
7045;SDS011;3564;53.326;10.356;2023-04-01T23:43:29;5.70;;;1.97;;
7045;SDS011;3564;53.326;10.356;2023-04-01T23:45:58;2.17;;;1.70;;
7045;SDS011;3564;53.326;10.356;2023-04-01T23:48:39;16.43;;;1.90;;
7045;SDS011;3564;53.326;10.356;2023-04-01T23:53:38;1.67;;;1.37;;
7045;SDS011;3564;53.326;10.356;2023-04-01T23:56:09;3.17;;;1.60;;
